sensor_id;sensor_type;location;lat;lon;timestamp;pressure;altitude;pressure_sealevel;temperature;humidity
13027;BME280;6580;42.680;23.324;2023-01-30T00:01:05;95599.91;;;1.25;100.00
13027;BME280;6580;42.680;23.324;2023-01-30T00:03:32;95587.16;;;1.19;100.00
13027;BME280;6580;42.680;23.324;2023-01-30T00:05:59;95591.09;;;1.12;100.00
13027;BME280;6580;42.680;23.324;2023-01-30T00:08:27;95579.59;;;1.15;100.00
13027;BME280;6580;42.680;23.324;2023-01-30T00:10:54;95584.84;;;1.15;100.00
13027;BME280;6580;42.680;23.324;2023-01-30T00:13:21;95578.91;;;1.11;100.00
13027;BME280;6580;42.680;23.324;2023-01-30T00:15:48;95581.34;;;1.00;100.00
13027;BME280;6580;42.680;23.324;2023-01-30T00:18:15;95582.09;;;0.89;100.00
13027;BME280;6580;42.680;23.324;2023-01-30T00:20:41;95583.63;;;1.06;100.00
13027;BME280;6580;42.680;23.324;2023-01-30T00:23:08;95583.78;;;0.90;100.00
13027;BME280;6580;42.680;23.324;2023-01-30T00:25:36;95586.88;;;0.96;100.00
13027;BME280;6580;42.680;23.324;2023-01-30T00:28:03;95584.34;;;0.95;100.00
13027;BME280;6580;42.680;23.324;2023-01-30T00:30:30;95579.94;;;0.95;100.00
13027;BME280;6580;42.680;23.324;2023-01-30T00:32:57;95590.72;;;1.04;100.00
13027;BME280;6580;42.680;23.324;2023-01-30T00:35:24;95544.25;;;0.79;100.00
13027;BME280;6580;42.680;23.324;2023-01-30T00:37:54;95585.28;;;0.94;100.00
13027;BME280;6580;42.680;23.324;2023-01-30T00:40:21;95580.78;;;0.82;100.00
13027;BME280;6580;42.680;23.324;2023-01-30T00:42:49;95569.75;;;1.04;100.00
13027;BME280;6580;42.680;23.324;2023-01-30T00:45:33;95571.91;;;0.98;100.00
13027;BME280;6580;42.680;23.324;2023-01-30T00:48:18;95578.72;;;1.00;100.00
13027;BME280;6580;42.680;23.324;2023-01-30T00:50:45;95563.47;;;0.93;100.00
13027;BME280;6580;42.680;23.324;2023-01-30T00:53:13;95566.38;;;0.89;100.00
13027;BME280;6580;42.680;23.324;2023-01-30T00:55:41;95564.22;;;0.81;100.00
13027;BME280;6580;42.680;23.324;2023-01-30T00:58:11;95566.72;;;0.83;100.00
13027;BME280;6580;42.680;23.324;2023-01-30T01:00:38;95567.84;;;0.93;100.00
13027;BME280;6580;42.680;23.324;2023-01-30T01:03:04;95572.63;;;0.86;100.00
13027;BME280;6580;42.680;23.324;2023-01-30T01:05:31;95569.00;;;0.89;100.00
13027;BME280;6580;42.680;23.324;2023-01-30T01:07:58;95557.66;;;1.02;100.00
13027;BME280;6580;42.680;23.324;2023-01-30T01:10:25;95552.13;;;0.93;100.00
13027;BME280;6580;42.680;23.324;2023-01-30T01:12:51;95552.59;;;0.85;100.00
13027;BME280;6580;42.680;23.324;2023-01-30T01:15:20;95561.22;;;1.01;100.00
13027;BME280;6580;42.680;23.324;2023-01-30T01:17:48;95558.78;;;1.12;100.00
13027;BME280;6580;42.680;23.324;2023-01-30T01:20:16;95518.81;;;0.81;100.00
13027;BME280;6580;42.680;23.324;2023-01-30T01:22:43;95552.69;;;0.84;100.00
13027;BME280;6580;42.680;23.324;2023-01-30T01:25:10;95546.88;;;0.65;100.00
13027;BME280;6580;42.680;23.324;2023-01-30T01:27:37;95533.00;;;0.63;100.00
13027;BME280;6580;42.680;23.324;2023-01-30T01:30:05;95540.78;;;0.64;100.00
13027;BME280;6580;42.680;23.324;2023-01-30T01:32:33;95550.44;;;0.78;100.00
13027;BME280;6580;42.680;23.324;2023-01-30T01:35:00;95541.16;;;0.86;100.00
13027;BME280;6580;42.680;23.324;2023-01-30T01:37:27;95528.16;;;0.85;100.00
13027;BME280;6580;42.680;23.324;2023-01-30T01:39:53;95541.56;;;0.80;100.00
13027;BME280;6580;42.680;23.324;2023-01-30T01:42:38;95540.63;;;0.81;100.00
13027;BME280;6580;42.680;23.324;2023-01-30T01:45:14;95545.59;;;0.86;100.00
13027;BME280;6580;42.680;23.324;2023-01-30T01:47:48;95540.53;;;0.83;100.00
13027;BME280;6580;42.680;23.324;2023-01-30T01:50:18;95542.22;;;0.98;100.00
13027;BME280;6580;42.680;23.324;2023-01-30T01:52:48;95541.34;;;0.83;100.00
13027;BME280;6580;42.680;23.324;2023-01-30T01:55:19;95542.56;;;0.78;100.00
13027;BME280;6580;42.680;23.324;2023-01-30T01:57:49;95543.53;;;0.91;100.00
13027;BME280;6580;42.680;23.324;2023-01-30T02:00:18;95537.03;;;0.82;100.00
13027;BME280;6580;42.680;23.324;2023-01-30T02:02:49;95549.13;;;0.85;100.00
13027;BME280;6580;42.680;23.324;2023-01-30T02:05:18;95538.06;;;0.66;100.00
13027;BME280;6580;42.680;23.324;2023-01-30T02:07:49;95534.88;;;0.75;100.00
13027;BME280;6580;42.680;23.324;2023-01-30T02:10:21;95542.03;;;0.73;100.00
13027;BME280;6580;42.680;23.324;2023-01-30T02:12:49;95532.00;;;0.79;100.00
13027;BME280;6580;42.680;23.324;2023-01-30T02:15:18;95538.28;;;0.91;100.00
13027;BME280;6580;42.680;23.324;2023-01-30T02:17:46;95544.06;;;0.96;100.00
13027;BME280;6580;42.680;23.324;2023-01-30T02:20:21;95540.25;;;0.87;100.00
13027;BME280;6580;42.680;23.324;2023-01-30T02:23:09;95537.50;;;0.75;100.00
13027;BME280;6580;42.680;23.324;2023-01-30T02:25:52;95530.75;;;0.57;100.00
13027;BME280;6580;42.680;23.324;2023-01-30T02:28:39;95545.13;;;0.79;100.00
13027;BME280;6580;42.680;23.324;2023-01-30T02:31:25;95535.75;;;0.61;100.00
13027;BME280;6580;42.680;23.324;2023-01-30T02:34:04;95541.34;;;0.69;100.00
13027;BME280;6580;42.680;23.324;2023-01-30T02:36:41;95539.59;;;0.70;100.00
13027;BME280;6580;42.680;23.324;2023-01-30T02:39:21;95542.75;;;0.75;100.00
13027;BME280;6580;42.680;23.324;2023-01-30T02:41:58;95529.84;;;0.86;100.00
13027;BME280;6580;42.680;23.324;2023-01-30T02:44:30;95534.72;;;0.92;100.00
13027;BME280;6580;42.680;23.324;2023-01-30T02:47:04;95519.19;;;0.89;100.00
13027;BME280;6580;42.680;23.324;2023-01-30T02:49:35;95525.34;;;1.01;100.00
13027;BME280;6580;42.680;23.324;2023-01-30T02:52:05;95509.72;;;0.86;100.00
13027;BME280;6580;42.680;23.324;2023-01-30T02:54:34;95517.69;;;0.85;100.00
13027;BME280;6580;42.680;23.324;2023-01-30T02:57:01;95532.00;;;0.79;100.00
13027;BME280;6580;42.680;23.324;2023-01-30T02:59:31;95508.03;;;0.85;100.00
13027;BME280;6580;42.680;23.324;2023-01-30T03:02:27;95538.56;;;1.00;100.00
13027;BME280;6580;42.680;23.324;2023-01-30T03:05:11;95517.00;;;0.67;100.00
13027;BME280;6580;42.680;23.324;2023-01-30T03:07:45;95531.72;;;0.84;100.00
13027;BME280;6580;42.680;23.324;2023-01-30T03:10:26;95525.63;;;0.83;100.00
13027;BME280;6580;42.680;23.324;2023-01-30T03:12:59;95521.53;;;0.79;100.00
13027;BME280;6580;42.680;23.324;2023-01-30T03:15:33;95517.31;;;0.91;100.00
13027;BME280;6580;42.680;23.324;2023-01-30T03:18:03;95515.72;;;0.74;100.00
13027;BME280;6580;42.680;23.324;2023-01-30T03:20:35;95516.00;;;0.84;100.00
13027;BME280;6580;42.680;23.324;2023-01-30T03:23:02;95503.81;;;0.83;100.00
13027;BME280;6580;42.680;23.324;2023-01-30T03:25:30;95498.31;;;0.59;100.00
13027;BME280;6580;42.680;23.324;2023-01-30T03:27:58;95492.97;;;0.61;100.00
13027;BME280;6580;42.680;23.324;2023-01-30T03:30:27;95495.41;;;0.78;100.00
13027;BME280;6580;42.680;23.324;2023-01-30T03:32:54;95497.94;;;0.79;100.00
13027;BME280;6580;42.680;23.324;2023-01-30T03:35:22;95495.03;;;0.70;100.00
13027;BME280;6580;42.680;23.324;2023-01-30T03:37:49;95490.53;;;0.72;100.00
13027;BME280;6580;42.680;23.324;2023-01-30T03:40:16;95493.53;;;0.66;100.00
13027;BME280;6580;42.680;23.324;2023-01-30T03:42:43;95494.38;;;0.80;100.00
13027;BME280;6580;42.680;23.324;2023-01-30T03:45:10;95493.31;;;0.97;100.00
13027;BME280;6580;42.680;23.324;2023-01-30T03:47:37;95486.97;;;1.00;100.00
13027;BME280;6580;42.680;23.324;2023-01-30T03:50:04;95490.53;;;0.86;100.00
13027;BME280;6580;42.680;23.324;2023-01-30T03:52:34;95495.19;;;0.95;100.00
13027;BME280;6580;42.680;23.324;2023-01-30T03:55:01;95492.13;;;0.88;100.00
13027;BME280;6580;42.680;23.324;2023-01-30T03:57:28;95479.09;;;1.00;100.00
13027;BME280;6580;42.680;23.324;2023-01-30T03:59:55;95479.75;;;0.90;100.00
13027;BME280;6580;42.680;23.324;2023-01-30T04:02:22;95488.28;;;0.80;100.00
13027;BME280;6580;42.680;23.324;2023-01-30T04:04:50;95490.72;;;0.83;100.00
13027;BME280;6580;42.680;23.324;2023-01-30T04:07:17;95486.03;;;0.88;100.00
13027;BME280;6580;42.680;23.324;2023-01-30T04:09:45;95484.09;;;0.77;100.00
13027;BME280;6580;42.680;23.324;2023-01-30T04:12:12;95485.28;;;0.86;100.00
13027;BME280;6580;42.680;23.324;2023-01-30T04:14:39;95479.94;;;0.87;100.00
13027;BME280;6580;42.680;23.324;2023-01-30T04:17:06;95484.06;;;0.91;100.00
13027;BME280;6580;42.680;23.324;2023-01-30T04:19:33;95486.31;;;0.83;100.00
13027;BME280;6580;42.680;23.324;2023-01-30T04:22:00;95479.31;;;0.84;100.00
13027;BME280;6580;42.680;23.324;2023-01-30T04:24:26;95476.22;;;0.91;100.00
13027;BME280;6580;42.680;23.324;2023-01-30T04:26:55;95489.78;;;0.84;100.00
13027;BME280;6580;42.680;23.324;2023-01-30T04:29:21;95475.75;;;0.85;100.00
13027;BME280;6580;42.680;23.324;2023-01-30T04:31:48;95490.34;;;0.75;100.00
13027;BME280;6580;42.680;23.324;2023-01-30T04:34:15;95464.97;;;0.75;100.00
13027;BME280;6580;42.680;23.324;2023-01-30T04:36:42;95481.63;;;0.88;100.00
13027;BME280;6580;42.680;23.324;2023-01-30T04:39:08;95474.25;;;0.81;100.00
13027;BME280;6580;42.680;23.324;2023-01-30T04:41:35;95480.69;;;0.89;100.00
13027;BME280;6580;42.680;23.324;2023-01-30T04:44:03;95471.91;;;0.62;100.00
13027;BME280;6580;42.680;23.324;2023-01-30T04:46:30;95480.97;;;0.57;100.00
13027;BME280;6580;42.680;23.324;2023-01-30T04:48:57;95475.06;;;0.67;100.00
13027;BME280;6580;42.680;23.324;2023-01-30T04:51:24;95468.44;;;0.76;100.00
13027;BME280;6580;42.680;23.324;2023-01-30T04:53:50;95464.34;;;0.72;100.00
13027;BME280;6580;42.680;23.324;2023-01-30T04:56:17;95461.91;;;0.69;100.00
13027;BME280;6580;42.680;23.324;2023-01-30T04:58:44;95454.41;;;0.63;100.00
13027;BME280;6580;42.680;23.324;2023-01-30T05:01:14;95461.81;;;0.56;100.00
13027;BME280;6580;42.680;23.324;2023-01-30T05:03:41;95452.38;;;0.54;100.00
13027;BME280;6580;42.680;23.324;2023-01-30T05:06:08;95461.81;;;0.56;100.00
13027;BME280;6580;42.680;23.324;2023-01-30T05:08:34;95445.81;;;0.47;100.00
13027;BME280;6580;42.680;23.324;2023-01-30T05:11:01;95458.25;;;0.71;100.00
13027;BME280;6580;42.680;23.324;2023-01-30T05:13:28;95463.94;;;0.78;100.00
13027;BME280;6580;42.680;23.324;2023-01-30T05:15:54;95450.47;;;0.70;100.00
13027;BME280;6580;42.680;23.324;2023-01-30T05:18:22;95450.28;;;0.59;100.00
13027;BME280;6580;42.680;23.324;2023-01-30T05:20:49;95469.94;;;0.66;100.00
13027;BME280;6580;42.680;23.324;2023-01-30T05:23:16;95464.88;;;0.63;100.00
13027;BME280;6580;42.680;23.324;2023-01-30T05:25:43;95476.31;;;0.62;100.00
13027;BME280;6580;42.680;23.324;2023-01-30T05:28:09;95465.47;;;0.68;100.00
13027;BME280;6580;42.680;23.324;2023-01-30T05:30:36;95465.66;;;0.51;100.00
13027;BME280;6580;42.680;23.324;2023-01-30T05:33:03;95468.81;;;0.56;100.00
13027;BME280;6580;42.680;23.324;2023-01-30T05:35:31;95471.81;;;0.64;100.00
13027;BME280;6580;42.680;23.324;2023-01-30T05:37:58;95474.31;;;0.51;100.00
13027;BME280;6580;42.680;23.324;2023-01-30T05:40:26;95476.13;;;0.65;100.00
13027;BME280;6580;42.680;23.324;2023-01-30T05:42:53;95472.75;;;0.77;100.00
13027;BME280;6580;42.680;23.324;2023-01-30T05:45:20;95437.00;;;0.34;100.00
13027;BME280;6580;42.680;23.324;2023-01-30T05:47:49;95481.25;;;0.66;100.00
13027;BME280;6580;42.680;23.324;2023-01-30T05:50:17;95459.72;;;0.47;100.00
13027;BME280;6580;42.680;23.324;2023-01-30T05:52:45;95476.31;;;0.62;100.00
13027;BME280;6580;42.680;23.324;2023-01-30T05:55:13;95481.53;;;0.48;100.00
13027;BME280;6580;42.680;23.324;2023-01-30T05:57:41;95484.91;;;0.64;100.00
13027;BME280;6580;42.680;23.324;2023-01-30T06:00:09;95478.16;;;0.60;100.00
13027;BME280;6580;42.680;23.324;2023-01-30T06:02:36;95485.66;;;0.52;100.00
13027;BME280;6580;42.680;23.324;2023-01-30T06:05:03;95484.34;;;0.59;100.00
13027;BME280;6580;42.680;23.324;2023-01-30T06:07:30;95487.25;;;0.54;100.00
13027;BME280;6580;42.680;23.324;2023-01-30T06:09:58;95489.41;;;0.76;100.00
13027;BME280;6580;42.680;23.324;2023-01-30T06:12:25;95485.66;;;0.80;100.00
13027;BME280;6580;42.680;23.324;2023-01-30T06:14:52;95488.09;;;0.97;100.00
13027;BME280;6580;42.680;23.324;2023-01-30T06:17:18;95479.66;;;1.05;100.00
13027;BME280;6580;42.680;23.324;2023-01-30T06:19:45;95477.25;;;0.89;100.00
13027;BME280;6580;42.680;23.324;2023-01-30T06:22:12;95460.66;;;0.88;100.00
13027;BME280;6580;42.680;23.324;2023-01-30T06:24:39;95468.06;;;0.68;100.00
13027;BME280;6580;42.680;23.324;2023-01-30T06:27:07;95474.06;;;0.70;100.00
13027;BME280;6580;42.680;23.324;2023-01-30T06:29:33;95468.22;;;0.37;100.00
13027;BME280;6580;42.680;23.324;2023-01-30T06:32:00;95480.03;;;0.44;100.00
13027;BME280;6580;42.680;23.324;2023-01-30T06:34:27;95473.50;;;0.51;100.00
13027;BME280;6580;42.680;23.324;2023-01-30T06:36:54;95474.59;;;0.33;100.00
13027;BME280;6580;42.680;23.324;2023-01-30T06:39:21;95471.31;;;0.29;100.00
13027;BME280;6580;42.680;23.324;2023-01-30T06:41:47;95477.59;;;0.41;100.00
13027;BME280;6580;42.680;23.324;2023-01-30T06:44:15;95470.13;;;0.35;100.00
13027;BME280;6580;42.680;23.324;2023-01-30T06:46:42;95471.88;;;0.48;100.00
13027;BME280;6580;42.680;23.324;2023-01-30T06:49:09;95481.63;;;0.46;100.00
13027;BME280;6580;42.680;23.324;2023-01-30T06:51:36;95462.06;;;0.38;100.00
13027;BME280;6580;42.680;23.324;2023-01-30T06:54:03;95473.38;;;0.24;100.00
13027;BME280;6580;42.680;23.324;2023-01-30T06:56:30;95484.06;;;0.49;100.00
13027;BME280;6580;42.680;23.324;2023-01-30T06:58:56;95487.13;;;0.56;100.00
13027;BME280;6580;42.680;23.324;2023-01-30T07:01:24;95490.16;;;0.50;100.00
13027;BME280;6580;42.680;23.324;2023-01-30T07:03:51;95482.19;;;0.51;100.00
13027;BME280;6580;42.680;23.324;2023-01-30T07:06:18;95482.47;;;0.61;100.00
13027;BME280;6580;42.680;23.324;2023-01-30T07:08:45;95498.94;;;0.77;100.00
13027;BME280;6580;42.680;23.324;2023-01-30T07:11:12;95494.09;;;0.71;100.00
13027;BME280;6580;42.680;23.324;2023-01-30T07:13:39;95495.84;;;0.70;100.00
13027;BME280;6580;42.680;23.324;2023-01-30T07:16:06;95491.94;;;0.63;100.00
13027;BME280;6580;42.680;23.324;2023-01-30T07:18:34;95485.84;;;0.63;100.00
13027;BME280;6580;42.680;23.324;2023-01-30T07:21:01;95493.16;;;0.86;100.00
13027;BME280;6580;42.680;23.324;2023-01-30T07:23:28;95494.81;;;0.59;100.00
13027;BME280;6580;42.680;23.324;2023-01-30T07:25:55;95494.19;;;0.69;100.00
13027;BME280;6580;42.680;23.324;2023-01-30T07:28:22;95495.56;;;0.47;100.00
13027;BME280;6580;42.680;23.324;2023-01-30T07:30:49;95496.72;;;0.85;100.00
13027;BME280;6580;42.680;23.324;2023-01-30T07:33:17;95496.06;;;0.81;100.00
13027;BME280;6580;42.680;23.324;2023-01-30T07:35:45;95508.88;;;0.86;100.00
13027;BME280;6580;42.680;23.324;2023-01-30T07:38:12;95508.59;;;1.04;100.00
13027;BME280;6580;42.680;23.324;2023-01-30T07:40:39;95513.66;;;0.93;100.00
13027;BME280;6580;42.680;23.324;2023-01-30T07:43:08;95512.53;;;1.11;100.00
13027;BME280;6580;42.680;23.324;2023-01-30T07:45:37;95508.31;;;1.08;100.00
13027;BME280;6580;42.680;23.324;2023-01-30T07:48:07;95508.09;;;1.11;100.00
13027;BME280;6580;42.680;23.324;2023-01-30T07:50:35;95509.63;;;1.01;100.00
13027;BME280;6580;42.680;23.324;2023-01-30T07:53:04;95507.75;;;1.03;100.00
13027;BME280;6580;42.680;23.324;2023-01-30T07:55:31;95503.13;;;1.21;100.00
13027;BME280;6580;42.680;23.324;2023-01-30T07:57:59;95483.84;;;1.36;100.00
13027;BME280;6580;42.680;23.324;2023-01-30T08:00:26;95489.78;;;1.38;100.00
13027;BME280;6580;42.680;23.324;2023-01-30T08:02:54;95466.44;;;1.47;100.00
13027;BME280;6580;42.680;23.324;2023-01-30T08:05:22;95474.03;;;1.52;100.00
13027;BME280;6580;42.680;23.324;2023-01-30T08:07:48;95471.91;;;1.44;100.00
13027;BME280;6580;42.680;23.324;2023-01-30T08:10:17;95472.84;;;1.43;100.00
13027;BME280;6580;42.680;23.324;2023-01-30T08:12:44;95473.19;;;1.51;100.00
13027;BME280;6580;42.680;23.324;2023-01-30T08:15:10;95466.06;;;1.53;100.00
13027;BME280;6580;42.680;23.324;2023-01-30T08:17:37;95470.16;;;1.57;100.00
13027;BME280;6580;42.680;23.324;2023-01-30T08:20:05;95461.44;;;1.57;100.00
13027;BME280;6580;42.680;23.324;2023-01-30T08:22:32;95466.69;;;1.57;100.00
13027;BME280;6580;42.680;23.324;2023-01-30T08:24:59;95473.03;;;1.67;100.00
13027;BME280;6580;42.680;23.324;2023-01-30T08:27:27;95467.97;;;1.37;100.00
13027;BME280;6580;42.680;23.324;2023-01-30T08:29:54;95463.91;;;1.46;100.00
13027;BME280;6580;42.680;23.324;2023-01-30T08:32:21;95454.41;;;1.31;100.00
13027;BME280;6580;42.680;23.324;2023-01-30T08:34:48;95458.69;;;1.46;100.00
13027;BME280;6580;42.680;23.324;2023-01-30T08:37:15;95452.88;;;1.67;100.00
13027;BME280;6580;42.680;23.324;2023-01-30T08:39:42;95449.72;;;1.62;100.00
13027;BME280;6580;42.680;23.324;2023-01-30T08:42:09;95443.19;;;1.55;100.00
13027;BME280;6580;42.680;23.324;2023-01-30T08:44:37;95439.50;;;1.31;100.00
13027;BME280;6580;42.680;23.324;2023-01-30T08:47:04;95437.25;;;1.39;100.00
13027;BME280;6580;42.680;23.324;2023-01-30T08:49:31;95438.88;;;1.28;100.00
13027;BME280;6580;42.680;23.324;2023-01-30T08:51:58;95443.97;;;1.43;100.00
13027;BME280;6580;42.680;23.324;2023-01-30T08:54:25;95438.06;;;1.40;100.00
13027;BME280;6580;42.680;23.324;2023-01-30T08:56:52;95414.56;;;1.38;100.00
13027;BME280;6580;42.680;23.324;2023-01-30T08:59:19;95422.75;;;1.34;100.00
13027;BME280;6580;42.680;23.324;2023-01-30T09:01:47;95429.13;;;1.56;100.00
13027;BME280;6580;42.680;23.324;2023-01-30T09:04:14;95423.88;;;1.56;100.00
13027;BME280;6580;42.680;23.324;2023-01-30T09:06:41;95423.88;;;1.56;100.00
13027;BME280;6580;42.680;23.324;2023-01-30T09:09:10;95418.63;;;1.56;100.00
13027;BME280;6580;42.680;23.324;2023-01-30T09:11:37;95409.13;;;1.41;100.00
13027;BME280;6580;42.680;23.324;2023-01-30T09:14:04;95418.06;;;1.51;100.00
13027;BME280;6580;42.680;23.324;2023-01-30T09:16:31;95432.06;;;1.38;100.00
13027;BME280;6580;42.680;23.324;2023-01-30T09:18:59;95429.00;;;1.31;100.00
13027;BME280;6580;42.680;23.324;2023-01-30T09:21:26;95419.25;;;1.33;100.00
13027;BME280;6580;42.680;23.324;2023-01-30T09:23:54;95416.31;;;1.11;100.00
13027;BME280;6580;42.680;23.324;2023-01-30T09:26:21;95419.31;;;1.19;100.00
13027;BME280;6580;42.680;23.324;2023-01-30T09:28:48;95408.06;;;1.17;100.00
13027;BME280;6580;42.680;23.324;2023-01-30T09:31:15;95428.25;;;1.29;100.00
13027;BME280;6580;42.680;23.324;2023-01-30T09:33:42;95419.19;;;1.21;100.00
13027;BME280;6580;42.680;23.324;2023-01-30T09:36:10;95421.94;;;1.19;100.00
13027;BME280;6580;42.680;23.324;2023-01-30T09:38:37;95416.25;;;1.39;100.00
13027;BME280;6580;42.680;23.324;2023-01-30T09:41:29;95417.94;;;1.40;100.00
13027;BME280;6580;42.680;23.324;2023-01-30T09:47:07;95403.63;;;1.32;100.00
13027;BME280;6580;42.680;23.324;2023-01-30T09:49:43;95400.22;;;1.17;100.00
13027;BME280;6580;42.680;23.324;2023-01-30T09:52:23;95396.75;;;1.17;100.00
13027;BME280;6580;42.680;23.324;2023-01-30T09:54:59;95397.94;;;1.25;100.00
13027;BME280;6580;42.680;23.324;2023-01-30T09:57:28;95384.34;;;1.33;100.00
13027;BME280;6580;42.680;23.324;2023-01-30T09:59:57;95386.19;;;1.57;100.00
13027;BME280;6580;42.680;23.324;2023-01-30T10:02:34;95386.47;;;1.40;100.00
13027;BME280;6580;42.680;23.324;2023-01-30T10:05:03;95364.97;;;1.21;100.00
13027;BME280;6580;42.680;23.324;2023-01-30T10:07:41;95382.72;;;1.04;100.00
13027;BME280;6580;42.680;23.324;2023-01-30T10:10:17;95366.41;;;1.13;100.00
13027;BME280;6580;42.680;23.324;2023-01-30T10:12:55;95357.44;;;1.29;100.00
13027;BME280;6580;42.680;23.324;2023-01-30T10:15:33;95364.59;;;1.27;100.00
13027;BME280;6580;42.680;23.324;2023-01-30T10:21:11;95345.22;;;1.55;100.00
13027;BME280;6580;42.680;23.324;2023-01-30T10:23:53;95342.25;;;1.34;100.00
13027;BME280;6580;42.680;23.324;2023-01-30T10:26:25;95345.16;;;1.56;100.00
13027;BME280;6580;42.680;23.324;2023-01-30T10:28:56;95335.03;;;1.50;100.00
13027;BME280;6580;42.680;23.324;2023-01-30T10:31:27;95338.56;;;1.63;99.07
13027;BME280;6580;42.680;23.324;2023-01-30T10:33:58;95327.09;;;1.13;98.40
13027;BME280;6580;42.680;23.324;2023-01-30T10:36:31;95324.22;;;1.03;100.00
13027;BME280;6580;42.680;23.324;2023-01-30T10:39:02;95312.69;;;1.06;100.00
13027;BME280;6580;42.680;23.324;2023-01-30T10:41:33;95310.44;;;1.26;100.00
13027;BME280;6580;42.680;23.324;2023-01-30T10:44:05;95307.69;;;1.15;100.00
13027;BME280;6580;42.680;23.324;2023-01-30T10:46:53;95304.47;;;1.24;99.75
13027;BME280;6580;42.680;23.324;2023-01-30T10:49:30;95293.63;;;1.16;100.00
13027;BME280;6580;42.680;23.324;2023-01-30T10:52:12;95292.66;;;1.56;98.29
13027;BME280;6580;42.680;23.324;2023-01-30T10:54:53;95284.16;;;1.65;96.09
13027;BME280;6580;42.680;23.324;2023-01-30T10:57:27;95279.00;;;1.51;96.09
13027;BME280;6580;42.680;23.324;2023-01-30T11:00:00;95267.25;;;1.44;96.72
13027;BME280;6580;42.680;23.324;2023-01-30T11:02:34;95261.78;;;1.60;97.09
13027;BME280;6580;42.680;23.324;2023-01-30T11:05:14;95262.84;;;1.82;96.92
13027;BME280;6580;42.680;23.324;2023-01-30T11:07:42;95252.25;;;1.96;93.12
13027;BME280;6580;42.680;23.324;2023-01-30T11:10:16;95244.38;;;1.96;92.07
13027;BME280;6580;42.680;23.324;2023-01-30T11:12:43;95226.75;;;1.86;91.22
13027;BME280;6580;42.680;23.324;2023-01-30T11:15:11;95232.19;;;1.95;89.47
13027;BME280;6580;42.680;23.324;2023-01-30T11:17:39;95232.72;;;2.00;89.76
13027;BME280;6580;42.680;23.324;2023-01-30T11:20:12;95232.63;;;1.52;91.76
13027;BME280;6580;42.680;23.324;2023-01-30T11:22:48;95237.84;;;1.64;95.20
13027;BME280;6580;42.680;23.324;2023-01-30T11:25:19;95220.25;;;1.41;93.36
13027;BME280;6580;42.680;23.324;2023-01-30T11:27:52;95222.09;;;1.27;93.10
13027;BME280;6580;42.680;23.324;2023-01-30T11:30:20;95212.66;;;1.12;94.10
13027;BME280;6580;42.680;23.324;2023-01-30T11:32:48;95206.69;;;1.47;96.47
13027;BME280;6580;42.680;23.324;2023-01-30T11:35:26;95200.38;;;1.87;95.13
13027;BME280;6580;42.680;23.324;2023-01-30T11:38:09;95192.25;;;2.15;90.23
13027;BME280;6580;42.680;23.324;2023-01-30T11:40:38;95191.88;;;1.84;91.28
13027;BME280;6580;42.680;23.324;2023-01-30T11:43:11;95198.34;;;2.03;91.61
13027;BME280;6580;42.680;23.324;2023-01-30T11:45:40;95183.53;;;2.38;88.83
13027;BME280;6580;42.680;23.324;2023-01-30T11:48:13;95168.78;;;2.48;88.12
13027;BME280;6580;42.680;23.324;2023-01-30T11:50:42;95163.16;;;2.05;90.31
13027;BME280;6580;42.680;23.324;2023-01-30T11:53:18;95154.63;;;2.14;91.13
13027;BME280;6580;42.680;23.324;2023-01-30T11:55:47;95159.03;;;2.14;90.14
13027;BME280;6580;42.680;23.324;2023-01-30T11:58:14;95149.38;;;2.02;89.54
13027;BME280;6580;42.680;23.324;2023-01-30T12:00:42;95120.19;;;2.06;90.36
13027;BME280;6580;42.680;23.324;2023-01-30T12:03:13;95146.63;;;2.63;87.76
13027;BME280;6580;42.680;23.324;2023-01-30T12:05:44;95129.72;;;2.43;87.96
13027;BME280;6580;42.680;23.324;2023-01-30T12:08:21;95129.63;;;2.56;86.60
13027;BME280;6580;42.680;23.324;2023-01-30T12:10:53;95120.78;;;2.57;88.57
13027;BME280;6580;42.680;23.324;2023-01-30T12:13:25;95122.25;;;2.61;86.28
13027;BME280;6580;42.680;23.324;2023-01-30T12:16:00;95118.22;;;2.68;86.34
13027;BME280;6580;42.680;23.324;2023-01-30T12:18:33;95115.88;;;2.52;88.25
13027;BME280;6580;42.680;23.324;2023-01-30T12:21:10;95099.34;;;2.74;86.13
13027;BME280;6580;42.680;23.324;2023-01-30T12:23:42;95101.09;;;2.97;84.15
13027;BME280;6580;42.680;23.324;2023-01-30T12:26:15;95100.19;;;3.19;82.28
13027;BME280;6580;42.680;23.324;2023-01-30T12:28:48;95100.16;;;2.97;81.92
13027;BME280;6580;42.680;23.324;2023-01-30T12:31:22;95096.88;;;2.83;82.15
13027;BME280;6580;42.680;23.324;2023-01-30T12:33:51;95072.31;;;3.06;84.01
13027;BME280;6580;42.680;23.324;2023-01-30T12:36:28;95081.50;;;3.11;81.17
13027;BME280;6580;42.680;23.324;2023-01-30T12:39:09;95069.31;;;3.10;80.68
13027;BME280;6580;42.680;23.324;2023-01-30T12:41:58;95072.06;;;3.20;77.74
13027;BME280;6580;42.680;23.324;2023-01-30T12:44:43;95068.88;;;3.82;76.33
13027;BME280;6580;42.680;23.324;2023-01-30T12:47:23;95063.22;;;3.76;76.17
13027;BME280;6580;42.680;23.324;2023-01-30T12:50:18;95062.06;;;3.47;75.53
13027;BME280;6580;42.680;23.324;2023-01-30T12:56:01;95056.81;;;2.69;79.82
13027;BME280;6580;42.680;23.324;2023-01-30T12:58:40;95050.84;;;2.78;81.99
13027;BME280;6580;42.680;23.324;2023-01-30T13:01:19;95051.25;;;2.50;82.13
13027;BME280;6580;42.680;23.324;2023-01-30T13:03:56;95051.06;;;2.75;83.50
13027;BME280;6580;42.680;23.324;2023-01-30T13:06:36;95038.94;;;2.96;82.76
13027;BME280;6580;42.680;23.324;2023-01-30T13:09:15;95021.84;;;2.45;81.34
13027;BME280;6580;42.680;23.324;2023-01-30T13:11:54;95043.22;;;2.86;80.76
13027;BME280;6580;42.680;23.324;2023-01-30T13:14:32;95049.69;;;2.93;80.30
13027;BME280;6580;42.680;23.324;2023-01-30T13:17:14;95049.25;;;2.64;82.68
13027;BME280;6580;42.680;23.324;2023-01-30T13:19:51;95050.09;;;2.65;82.70
13027;BME280;6580;42.680;23.324;2023-01-30T13:22:25;95049.38;;;2.63;83.55
13027;BME280;6580;42.680;23.324;2023-01-30T13:24:59;95038.84;;;3.08;81.75
13027;BME280;6580;42.680;23.324;2023-01-30T13:27:34;95037.25;;;2.95;80.90